createdAt,value
2022-08-20T00:00:28.703Z,4.25
2022-08-20T00:03:33.923Z,3.85
2022-08-20T00:06:35.878Z,4.50
2022-08-20T00:09:41.786Z,4.65
2022-08-20T00:12:47.408Z,4.95
2022-08-20T00:15:49.701Z,5.40
2022-08-20T00:21:58.435Z,4.75
2022-08-20T00:25:00.808Z,4.63
2022-08-20T00:28:05.026Z,4.60
2022-08-20T00:31:10.001Z,4.80
2022-08-20T00:34:11.982Z,4.70
2022-08-20T00:37:14.424Z,4.35
2022-08-20T00:40:23.281Z,5.05
2022-08-20T00:43:28.148Z,4.57
2022-08-20T00:46:31.703Z,4.82
2022-08-20T00:49:34.064Z,4.53
2022-08-20T00:52:36.897Z,5.70
2022-08-20T00:55:38.995Z,4.53
2022-08-20T00:58:45.275Z,5.97
2022-08-20T01:01:56.236Z,5.10
2022-08-20T01:04:58.953Z,4.72
2022-08-20T01:08:00.956Z,5.60
2022-08-20T01:11:21.323Z,4.57
2022-08-20T01:14:23.447Z,5.82
2022-08-20T01:17:29.160Z,5.85
2022-08-20T01:20:38.178Z,5.60
2022-08-20T01:24:06.681Z,6.13
2022-08-20T01:27:09.704Z,5.30
2022-08-20T01:30:14.803Z,5.72
2022-08-20T01:33:22.177Z,5.45
2022-08-20T01:36:30.414Z,5.38
2022-08-20T01:39:35.319Z,5.30
2022-08-20T01:42:58.709Z,5.43
2022-08-20T01:46:01.571Z,5.30
2022-08-20T01:49:21.025Z,5.60
2022-08-20T01:52:37.021Z,6.63
2022-08-20T01:55:39.560Z,5.18
2022-08-20T01:58:56.059Z,5.00
2022-08-20T02:02:02.823Z,5.38
2022-08-20T02:05:05.346Z,4.88
2022-08-20T02:08:07.329Z,5.03
2022-08-20T02:11:11.051Z,5.07
2022-08-20T02:14:13.337Z,5.43
2022-08-20T02:17:16.436Z,5.43
2022-08-20T02:20:23.865Z,4.90
2022-08-20T02:23:27.021Z,5.68
2022-08-20T02:26:29.573Z,5.40
2022-08-20T02:29:32.011Z,4.70
2022-08-20T02:35:38.485Z,6.03
2022-08-20T02:38:41.099Z,5.55
2022-08-20T02:41:43.180Z,5.28
2022-08-20T02:44:45.116Z,4.57
2022-08-20T02:47:47.445Z,5.53
2022-08-20T02:50:53.019Z,4.93
2022-08-20T02:53:54.924Z,4.78
2022-08-20T02:56:56.827Z,5.43
2022-08-20T02:59:59.228Z,4.85
2022-08-20T03:06:11.725Z,4.43
2022-08-20T03:09:13.581Z,5.10
2022-08-20T03:12:15.866Z,4.55
2022-08-20T03:15:18.037Z,4.40
2022-08-20T03:18:22.715Z,4.47
2022-08-20T03:21:24.709Z,3.83
2022-08-20T03:24:26.567Z,4.50
2022-08-20T03:27:31.242Z,3.95
2022-08-20T03:30:39.787Z,4.40
2022-08-20T03:33:52.872Z,5.00
2022-08-20T03:36:55.861Z,4.15
2022-08-20T03:39:58.586Z,4.47
2022-08-20T03:43:01.154Z,4.13
2022-08-20T03:46:04.331Z,3.70
2022-08-20T03:49:06.460Z,5.03
2022-08-20T03:52:08.434Z,3.97
2022-08-20T03:55:11.730Z,3.83
2022-08-20T03:58:14.578Z,3.70
2022-08-20T04:01:37.155Z,3.53
2022-08-20T04:07:42.697Z,3.80
2022-08-20T04:10:46.548Z,3.55
2022-08-20T04:13:48.605Z,3.35
2022-08-20T04:16:51.627Z,3.80
2022-08-20T04:19:53.623Z,3.35
2022-08-20T04:22:59.340Z,4.00
2022-08-20T04:26:01.664Z,3.42
2022-08-20T04:29:04.729Z,3.30
2022-08-20T04:32:07.335Z,4.38
2022-08-20T04:35:14.701Z,3.40
2022-08-20T04:38:19.265Z,3.22
2022-08-20T04:41:23.860Z,3.50
2022-08-20T04:44:26.309Z,3.30
2022-08-20T04:47:34.766Z,3.40
2022-08-20T04:50:38.663Z,3.05
2022-08-20T04:53:42.798Z,2.97
2022-08-20T04:56:44.684Z,3.33
2022-08-20T04:59:46.864Z,3.05
2022-08-20T05:02:49.321Z,3.63
2022-08-20T05:08:55.961Z,3.60
2022-08-20T05:11:57.914Z,3.75
2022-08-20T05:15:00.312Z,3.33
2022-08-20T05:18:07.702Z,3.38
2022-08-20T05:21:09.540Z,4.43
2022-08-20T05:24:12.319Z,4.72
2022-08-20T05:27:25.040Z,3.83
2022-08-20T05:30:34.157Z,3.70
2022-08-20T05:33:38.722Z,5.25
2022-08-20T05:36:48.184Z,4.85
2022-08-20T05:39:51.408Z,3.70
2022-08-20T05:42:53.979Z,3.85
2022-08-20T05:45:58.603Z,3.95
2022-08-20T05:49:02.047Z,4.82
2022-08-20T05:52:05.429Z,3.60
2022-08-20T05:55:09.974Z,3.90
2022-08-20T05:58:38.368Z,3.63
2022-08-20T06:01:42.061Z,4.55
2022-08-20T06:04:44.040Z,4.15
2022-08-20T06:07:46.636Z,4.38
2022-08-20T06:10:48.599Z,3.75
2022-08-20T06:13:50.546Z,4.20
2022-08-20T06:16:57.892Z,4.05
2022-08-20T06:20:07.628Z,3.83
2022-08-20T06:23:09.629Z,3.92
2022-08-20T06:26:11.727Z,4.03
2022-08-20T06:29:13.566Z,7.18
2022-08-20T06:32:16.417Z,4.38
2022-08-20T06:35:20.136Z,4.45
2022-08-20T06:38:22.180Z,6.30
2022-08-20T06:41:35.857Z,4.90
2022-08-20T06:44:38.459Z,4.38
2022-08-20T06:47:42.125Z,4.72
2022-08-20T06:50:47.897Z,5.20
2022-08-20T06:53:50.045Z,5.38
2022-08-20T06:56:54.683Z,6.25
2022-08-20T06:59:56.698Z,4.93
2022-08-20T07:06:03.349Z,5.28
2022-08-20T07:12:10.525Z,4.85
2022-08-20T07:15:14.890Z,5.60
2022-08-20T07:18:17.106Z,4.70
2022-08-20T07:21:30.519Z,5.00
2022-08-20T07:24:32.589Z,5.50
2022-08-20T07:27:35.555Z,5.40
2022-08-20T07:30:57.919Z,6.53
2022-08-20T07:34:00.508Z,6.22
2022-08-20T07:37:02.481Z,7.82
2022-08-20T07:43:06.973Z,6.30
2022-08-20T07:46:11.865Z,5.40
2022-08-20T07:49:13.814Z,5.85
2022-08-20T07:52:15.962Z,8.82
2022-08-20T07:55:18.074Z,6.03
2022-08-20T07:58:22.579Z,5.97
2022-08-20T08:01:31.980Z,5.40
2022-08-20T08:04:34.651Z,6.03
2022-08-20T08:07:38.385Z,6.00
2022-08-20T08:10:42.928Z,5.53
2022-08-20T08:13:44.975Z,6.32
2022-08-20T08:16:54.192Z,6.47
2022-08-20T08:19:59.952Z,5.95
2022-08-20T08:23:01.825Z,5.95
2022-08-20T08:29:28.316Z,6.57
2022-08-20T08:35:41.464Z,5.80
2022-08-20T08:38:46.623Z,6.90
2022-08-20T08:41:54.398Z,5.72
2022-08-20T08:44:59.620Z,6.55
2022-08-20T08:48:07.861Z,6.38
2022-08-20T08:51:12.788Z,6.75
2022-08-20T08:54:18.656Z,6.57
2022-08-20T08:57:20.890Z,6.40
2022-08-20T09:00:31.600Z,6.68
2022-08-20T09:03:44.141Z,5.93
2022-08-20T09:06:52.068Z,6.45
2022-08-20T09:09:58.308Z,6.97
2022-08-20T09:13:10.482Z,7.15
2022-08-20T09:16:13.586Z,6.43
2022-08-20T09:19:15.527Z,6.72
2022-08-20T09:22:20.874Z,5.88
2022-08-20T09:25:24.582Z,5.97
2022-08-20T09:28:32.514Z,6.13
2022-08-20T09:31:37.763Z,7.47
2022-08-20T09:34:46.993Z,6.88
2022-08-20T09:37:51.059Z,6.45
2022-08-20T09:40:54.153Z,6.13
2022-08-20T09:43:56.089Z,6.75
2022-08-20T09:46:57.980Z,6.07
2022-08-20T09:49:59.934Z,6.55
2022-08-20T09:53:04.180Z,6.43
2022-08-20T09:56:07.798Z,5.85
2022-08-20T09:59:09.789Z,6.85
2022-08-20T10:02:12.808Z,5.40
2022-08-20T10:05:15.259Z,6.38
2022-08-20T10:08:17.391Z,5.82
2022-08-20T10:11:22.208Z,5.55
2022-08-20T10:14:24.115Z,7.15
2022-08-20T10:17:26.174Z,9.05
2022-08-20T10:20:30.670Z,6.88
2022-08-20T10:23:32.660Z,5.05
2022-08-20T10:26:34.532Z,6.43
2022-08-20T10:29:39.037Z,5.65
2022-08-20T10:32:42.793Z,5.22
2022-08-20T10:35:44.883Z,5.75
2022-08-20T10:38:48.621Z,5.57
2022-08-20T10:41:50.490Z,7.65
2022-08-20T10:44:52.407Z,5.80
2022-08-20T10:47:54.430Z,7.22
2022-08-20T10:50:56.466Z,5.40
2022-08-20T10:54:00.032Z,5.50
2022-08-20T10:57:05.257Z,5.78
2022-08-20T11:00:10.978Z,5.20
2022-08-20T11:03:13.324Z,5.53
2022-08-20T11:06:17.626Z,5.38
2022-08-20T11:09:19.972Z,6.53
2022-08-20T11:12:24.535Z,4.97
2022-08-20T11:15:28.436Z,5.07
2022-08-20T11:18:31.659Z,4.57
2022-08-20T11:21:33.784Z,5.18
2022-08-20T11:24:36.251Z,6.90
2022-08-20T11:27:44.443Z,4.72
2022-08-20T11:30:50.002Z,4.05
2022-08-20T11:33:54.336Z,4.93
2022-08-20T11:36:59.189Z,4.53
2022-08-20T11:40:01.204Z,5.13
2022-08-20T11:43:18.687Z,4.57
2022-08-20T11:46:28.466Z,5.22
2022-08-20T11:49:36.785Z,4.80
2022-08-20T11:52:40.752Z,5.38
2022-08-20T11:55:43.656Z,6.22
2022-08-20T11:58:46.208Z,4.10
2022-08-20T12:01:49.931Z,4.50
2022-08-20T12:05:06.238Z,5.10
2022-08-20T12:08:09.635Z,4.53
2022-08-20T12:11:11.955Z,4.38
2022-08-20T12:14:15.803Z,4.43
2022-08-20T12:17:26.403Z,4.32
2022-08-20T12:20:28.519Z,4.65
2022-08-20T12:23:33.345Z,4.28
2022-08-20T12:26:36.425Z,4.38
2022-08-20T12:29:44.024Z,4.18
2022-08-20T12:32:46.181Z,4.28
2022-08-20T12:35:51.811Z,4.38
2022-08-20T12:38:53.778Z,4.82
2022-08-20T12:41:55.724Z,3.95
2022-08-20T12:45:07.211Z,4.18
2022-08-20T12:48:14.489Z,4.20
2022-08-20T12:51:16.365Z,4.22
2022-08-20T12:54:20.442Z,4.00
2022-08-20T13:00:34.051Z,3.75
2022-08-20T13:03:43.169Z,4.15
2022-08-20T13:06:47.093Z,3.80
2022-08-20T13:09:49.108Z,4.38
2022-08-20T13:15:53.204Z,4.18
2022-08-20T13:21:57.520Z,3.60
2022-08-20T13:25:02.017Z,4.13
2022-08-20T13:28:04.767Z,3.78
2022-08-20T13:31:06.760Z,3.90
2022-08-20T13:37:25.608Z,4.22
2022-08-20T13:40:28.345Z,4.57
2022-08-20T13:43:30.233Z,3.80
2022-08-20T13:49:34.132Z,3.45
2022-08-20T13:52:37.476Z,3.90
2022-08-20T13:55:39.507Z,4.20
2022-08-20T13:58:41.420Z,3.80
2022-08-20T14:01:44.530Z,3.78
2022-08-20T14:04:48.092Z,3.35
2022-08-20T14:07:51.584Z,3.33
2022-08-20T14:10:54.388Z,3.25
2022-08-20T14:13:56.257Z,3.63
2022-08-20T14:20:03.143Z,3.80
2022-08-20T14:23:05.032Z,3.58
2022-08-20T14:29:08.641Z,3.53
2022-08-20T14:32:11.388Z,3.33
2022-08-20T14:35:13.615Z,4.00
2022-08-20T14:38:15.486Z,3.42
2022-08-20T14:41:17.371Z,3.70
2022-08-20T14:47:22.605Z,3.78
2022-08-20T14:50:31.854Z,4.20
2022-08-20T14:53:38.574Z,3.85
2022-08-20T14:56:43.333Z,3.72
2022-08-20T14:59:45.872Z,3.80
2022-08-20T15:02:49.166Z,3.75
2022-08-20T15:05:54.509Z,3.47
2022-08-20T15:08:57.399Z,3.63
2022-08-20T15:11:59.959Z,3.60
2022-08-20T15:15:13.393Z,3.00
2022-08-20T15:18:19.285Z,3.35
2022-08-20T15:21:22.467Z,3.90
2022-08-20T15:24:24.425Z,3.90
2022-08-20T15:27:27.152Z,3.88
2022-08-20T15:30:31.081Z,3.65
2022-08-20T15:33:33.092Z,3.83
2022-08-20T15:39:43.201Z,3.85
2022-08-20T15:42:46.522Z,4.38
2022-08-20T15:45:48.659Z,4.00
2022-08-20T15:48:50.937Z,6.40
2022-08-20T15:51:52.807Z,3.75
2022-08-20T15:54:55.162Z,4.68
2022-08-20T15:58:15.255Z,4.00
2022-08-20T16:01:40.593Z,3.90
2022-08-20T16:05:03.630Z,3.45
2022-08-20T16:08:17.482Z,3.35
2022-08-20T16:11:35.840Z,3.35
2022-08-20T16:14:45.311Z,3.63
2022-08-20T16:17:53.270Z,3.15
2022-08-20T16:20:56.919Z,3.85
2022-08-20T16:24:05.940Z,3.22
2022-08-20T16:27:21.700Z,3.80
2022-08-20T16:30:41.956Z,6.82
2022-08-20T16:34:05.355Z,3.80
2022-08-20T16:37:54.554Z,4.10
2022-08-20T16:41:07.032Z,3.30
2022-08-20T16:44:20.115Z,3.63
2022-08-20T16:47:31.621Z,3.35
2022-08-20T16:50:45.950Z,3.83
2022-08-20T16:53:48.528Z,3.67
2022-08-20T16:56:58.731Z,2.97
2022-08-20T17:00:13.679Z,4.57
2022-08-20T17:03:31.629Z,3.65
2022-08-20T17:06:47.082Z,3.20
2022-08-20T17:09:48.922Z,3.20
2022-08-20T17:12:54.221Z,3.70
2022-08-20T17:16:16.253Z,3.50
2022-08-20T17:19:33.845Z,17.38
2022-08-20T17:22:45.639Z,10.07
2022-08-20T17:26:03.323Z,6.45
2022-08-20T17:29:22.256Z,4.07
2022-08-20T17:32:26.155Z,4.22
2022-08-20T17:35:40.804Z,3.55
2022-08-20T17:38:49.014Z,3.58
2022-08-20T17:42:03.277Z,3.70
2022-08-20T17:45:22.296Z,3.03
2022-08-20T17:48:31.059Z,3.75
2022-08-20T17:51:38.492Z,3.60
2022-08-20T17:54:44.655Z,3.70
2022-08-20T17:57:52.277Z,3.67
2022-08-20T18:00:54.197Z,4.28
2022-08-20T18:03:56.181Z,3.95
2022-08-20T18:07:27.541Z,3.40
2022-08-20T18:10:33.733Z,3.75
2022-08-20T18:14:06.812Z,3.13
2022-08-20T18:20:58.397Z,3.33
2022-08-20T18:24:08.853Z,3.22
2022-08-20T18:27:15.397Z,3.20
2022-08-20T18:30:21.565Z,3.70
2022-08-20T18:33:35.576Z,3.70
2022-08-20T18:36:37.712Z,3.28
2022-08-20T18:42:45.062Z,3.40
2022-08-20T18:45:47.229Z,3.63
2022-08-20T18:48:58.677Z,3.13
2022-08-20T18:52:28.589Z,3.45
2022-08-20T18:55:33.319Z,3.22
2022-08-20T18:59:10.179Z,3.15
2022-08-20T19:02:21.290Z,3.05
2022-08-20T19:05:40.495Z,2.83
2022-08-20T19:08:59.401Z,3.17
2022-08-20T19:12:33.052Z,2.50
2022-08-20T19:15:42.680Z,2.95
2022-08-20T19:18:52.791Z,3.03
2022-08-20T19:21:56.395Z,3.10
2022-08-20T19:24:59.612Z,2.80
2022-08-20T19:28:08.182Z,2.63
2022-08-20T19:31:33.773Z,3.10
2022-08-20T19:34:36.983Z,3.03
2022-08-20T19:37:50.535Z,2.83
2022-08-20T19:40:55.577Z,2.72
2022-08-20T19:44:23.913Z,2.72
2022-08-20T19:47:41.970Z,2.72
2022-08-20T19:50:57.498Z,2.85
2022-08-20T19:53:59.926Z,3.33
2022-08-20T19:57:09.692Z,2.88
2022-08-20T20:00:13.069Z,2.97
2022-08-20T20:03:23.503Z,3.30
2022-08-20T20:06:28.025Z,2.95
2022-08-20T20:09:30.462Z,2.75
2022-08-20T20:12:33.535Z,3.10
2022-08-20T20:15:37.093Z,3.35
2022-08-20T20:18:43.365Z,3.40
2022-08-20T20:21:50.642Z,2.83
2022-08-20T20:25:03.414Z,3.20
2022-08-20T20:28:22.321Z,2.97
2022-08-20T20:31:29.625Z,2.90
2022-08-20T20:34:37.903Z,2.90
2022-08-20T20:38:07.672Z,3.20
2022-08-20T20:41:21.990Z,2.63
2022-08-20T20:44:36.931Z,3.00
2022-08-20T20:47:39.355Z,3.38
2022-08-20T20:50:47.061Z,3.33
2022-08-20T20:53:54.874Z,2.80
2022-08-20T20:57:03.783Z,2.88
2022-08-20T21:00:12.045Z,3.17
2022-08-20T21:03:13.985Z,3.00
2022-08-20T21:06:19.210Z,3.17
2022-08-20T21:09:22.475Z,2.72
2022-08-20T21:12:25.135Z,2.70
2022-08-20T21:15:27.933Z,2.80
2022-08-20T21:18:29.958Z,2.70
2022-08-20T21:21:32.217Z,3.03
2022-08-20T21:27:38.921Z,2.67
2022-08-20T21:30:40.831Z,2.70
2022-08-20T21:33:43.425Z,3.50
2022-08-20T21:36:46.628Z,3.28
2022-08-20T21:39:48.549Z,3.80
2022-08-20T21:42:51.309Z,3.08
2022-08-20T21:45:53.499Z,3.22
2022-08-20T21:48:55.954Z,2.53
2022-08-20T21:52:00.556Z,3.20
2022-08-20T21:55:02.595Z,2.63
2022-08-20T21:58:04.899Z,3.92
2022-08-20T22:04:10.315Z,3.10
